Leatsa — FAE3345 — position and weather

sailwx.info

Track history (hours):
 
Tides and Currents Weather Stations Pressure Air Temp Water Temp Dewpoint Dewpoint Depression Visibility Wind Speed Wind Dir Waves Ship Positions

Leatsa

Last reported at 2018-Jun-23 08:58 UTC. Time now 2018-Jun-25 15:21 UTC.
Position N 69°08' E 017°46'.

Length 23 m.

Type: Sailing vessel. MMSI: 227465320.

Date/timePositionNaut miles runAvg speedWind from/ knotsBaromVisibWave heightAir tempDewpointWater temp
2018-Jun-23 08:58N 69°08' E 017°46'4 8.8
2018-Jun-23 08:30N 69°08' E 017°35'4 8.5
2018-Jun-23 08:00N 69°08' E 017°23'4 5.1
2018-Jun-23 07:12N 69°12' E 017°29'0 0.0
2018-Jun-23 06:54N 69°12' E 017°29'0 0.0
2018-Jun-23 06:24N 69°12' E 017°29'0 0.0
2018-Jun-23 05:36N 69°12' E 017°29'0 0.0
2018-Jun-23 05:18N 69°12' E 017°29'0 0.0
2018-Jun-23 04:48N 69°12' E 017°29'0 0.0
2018-Jun-23 04:24N 69°12' E 017°29'0 0.0
2018-Jun-23 04:00N 69°12' E 017°29'0 0.0
2018-Jun-23 03:24N 69°12' E 017°29'0 0.0
2018-Jun-23 03:00N 69°12' E 017°29'0 0.0
2018-Jun-23 02:18N 69°12' E 017°29'0 0.0
2018-Jun-23 02:00N 69°12' E 017°29'0 0.0
2018-Jun-23 01:30N 69°12' E 017°29'0 0.0
2018-Jun-23 01:00N 69°12' E 017°29'0 0.0
2018-Jun-23 00:30N 69°12' E 017°29'0 0.0
2018-Jun-22 23:42N 69°12' E 017°29'0 0.0
2018-Jun-22 23:27N 69°12' E 017°29'0 0.0
2018-Jun-22 22:48N 69°12' E 017°29'0 0.0
2018-Jun-22 22:21N 69°12' E 017°29'0 0.0
2018-Jun-22 22:00N 69°12' E 017°29'0 0.0
2018-Jun-22 21:30N 69°12' E 017°29'0 0.0
2018-Jun-22 20:54N 69°12' E 017°29'0 0.0
2018-Jun-22 20:24N 69°12' E 017°29'0 0.0
2018-Jun-22 20:00N 69°12' E 017°29'0 0.0
2018-Jun-22 19:30N 69°12' E 017°29'0 0.0
2018-Jun-22 18:03N 69°12' E 017°29'0 0.0
2018-Jun-22 17:51N 69°12' E 017°29'0 0.0
2018-Jun-22 17:24N 69°12' E 017°29'0 0.0
2018-Jun-22 16:48N 69°12' E 017°29'0 0.0
2018-Jun-22 16:30N 69°12' E 017°29'0 0.0
2018-Jun-22 15:54N 69°12' E 017°29'0 0.0
2018-Jun-22 14:57N 69°12' E 017°29'0 0.0
2018-Jun-22 14:24N 69°12' E 017°29'0 0.0
2018-Jun-22 13:54N 69°12' E 017°29'2 4.1
2018-Jun-22 13:30N 69°11' E 017°26'3 6.2
2018-Jun-22 12:59N 69°08' E 017°22'  
2018-Jun-15 18:45N 69°39' E 018°58'0 0.0
2018-Jun-15 18:30N 69°39' E 018°58'0 0.0
2018-Jun-15 18:00N 69°39' E 018°58'  
Track history (hours):
 
Tides and Currents Weather Stations Pressure Air Temp Water Temp Dewpoint Dewpoint Depression Visibility Wind Speed Wind Dir Waves Ship Positions

Leatsa

Last reported at 2018-Jun-23 08:58 UTC. Time now 2018-Jun-25 15:21 UTC.
Position N 69°08' E 017°46'.

Length 23 m.

Type: Sailing vessel. MMSI: 227465320.

Date/timePositionNaut miles runAvg speedWind from/ knotsBaromVisibWave heightAir tempDewpointWater temp
2018-Jun-23 08:58N 69°08' E 017°46'4 8.8
2018-Jun-23 08:30N 69°08' E 017°35'4 8.5
2018-Jun-23 08:00N 69°08' E 017°23'4 5.1
2018-Jun-23 07:12N 69°12' E 017°29'0 0.0
2018-Jun-23 06:54N 69°12' E 017°29'0 0.0
2018-Jun-23 06:24N 69°12' E 017°29'0 0.0
2018-Jun-23 05:36N 69°12' E 017°29'0 0.0
2018-Jun-23 05:18N 69°12' E 017°29'0 0.0
2018-Jun-23 04:48N 69°12' E 017°29'0 0.0
2018-Jun-23 04:24N 69°12' E 017°29'0 0.0
2018-Jun-23 04:00N 69°12' E 017°29'0 0.0
2018-Jun-23 03:24N 69°12' E 017°29'0 0.0
2018-Jun-23 03:00N 69°12' E 017°29'0 0.0
2018-Jun-23 02:18N 69°12' E 017°29'0 0.0
2018-Jun-23 02:00N 69°12' E 017°29'0 0.0
2018-Jun-23 01:30N 69°12' E 017°29'0 0.0
2018-Jun-23 01:00N 69°12' E 017°29'0 0.0
2018-Jun-23 00:30N 69°12' E 017°29'0 0.0
2018-Jun-22 23:42N 69°12' E 017°29'0 0.0
2018-Jun-22 23:27N 69°12' E 017°29'0 0.0
2018-Jun-22 22:48N 69°12' E 017°29'0 0.0
2018-Jun-22 22:21N 69°12' E 017°29'0 0.0
2018-Jun-22 22:00N 69°12' E 017°29'0 0.0
2018-Jun-22 21:30N 69°12' E 017°29'0 0.0
2018-Jun-22 20:54N 69°12' E 017°29'0 0.0
2018-Jun-22 20:24N 69°12' E 017°29'0 0.0
2018-Jun-22 20:00N 69°12' E 017°29'0 0.0
2018-Jun-22 19:30N 69°12' E 017°29'0 0.0
2018-Jun-22 18:03N 69°12' E 017°29'0 0.0
2018-Jun-22 17:51N 69°12' E 017°29'0 0.0
2018-Jun-22 17:24N 69°12' E 017°29'0 0.0
2018-Jun-22 16:48N 69°12' E 017°29'0 0.0
2018-Jun-22 16:30N 69°12' E 017°29'0 0.0
2018-Jun-22 15:54N 69°12' E 017°29'0 0.0
2018-Jun-22 14:57N 69°12' E 017°29'0 0.0
2018-Jun-22 14:24N 69°12' E 017°29'0 0.0
2018-Jun-22 13:54N 69°12' E 017°29'2 4.1
2018-Jun-22 13:30N 69°11' E 017°26'3 6.2
2018-Jun-22 12:59N 69°08' E 017°22'  
2018-Jun-15 18:45N 69°39' E 018°58'0 0.0
2018-Jun-15 18:30N 69°39' E 018°58'0 0.0
2018-Jun-15 18:00N 69°39' E 018°58'  

Dump ship's entire track history